createdAt,value
2022-09-17T00:02:35.325Z,97248.69
2022-09-17T00:07:37.446Z,97253.28
2022-09-17T00:12:39.317Z,97263.91
2022-09-17T00:17:41.945Z,97264.50
2022-09-17T00:22:43.724Z,97261.91
2022-09-17T00:27:46.281Z,97272.09
2022-09-17T00:32:48.044Z,97259.28
2022-09-17T00:37:49.985Z,97259.28
2022-09-17T00:42:53.419Z,97262.91
2022-09-17T00:48:01.967Z,97246.28
2022-09-17T00:53:12.455Z,97251.50
2022-09-17T00:58:18.780Z,97248.09
2022-09-17T01:03:20.858Z,97241.88
2022-09-17T01:08:38.904Z,97239.47
2022-09-17T01:13:55.578Z,97237.06
2022-09-17T01:19:19.016Z,97235.66
2022-09-17T01:24:47.935Z,97236.06
2022-09-17T01:30:15.211Z,97228.06
2022-09-17T01:35:49.123Z,97240.88
2022-09-17T01:40:54.077Z,97250.69
2022-09-17T01:46:20.388Z,97247.69
2022-09-17T01:51:28.214Z,97246.06
2022-09-17T01:56:42.482Z,97253.69
2022-09-17T02:01:48.486Z,97245.69
2022-09-17T02:06:58.972Z,97256.88
2022-09-17T02:12:08.217Z,97255.88
2022-09-17T02:17:28.428Z,97256.09
2022-09-17T02:22:44.286Z,97252.88
2022-09-17T02:27:48.403Z,97258.50
2022-09-17T02:32:51.059Z,97254.09
2022-09-17T02:37:53.414Z,97251.47
2022-09-17T02:43:13.381Z,97247.69
2022-09-17T02:48:30.699Z,97246.69
2022-09-17T02:54:21.823Z,97246.06
2022-09-17T03:00:05.189Z,97243.69
2022-09-17T03:05:08.641Z,97243.88
2022-09-17T03:10:11.147Z,97244.28
2022-09-17T03:15:13.157Z,97242.66
2022-09-17T03:20:16.202Z,97231.47
2022-09-17T03:25:18.120Z,97239.88
2022-09-17T03:30:20.052Z,97256.69
2022-09-17T03:35:22.244Z,97260.47
2022-09-17T03:40:24.261Z,97262.06
2022-09-17T03:45:26.123Z,97252.47
2022-09-17T03:50:27.984Z,97259.28
2022-09-17T03:55:29.784Z,97272.88
2022-09-17T04:00:32.004Z,97272.09
2022-09-17T04:05:34.022Z,97276.88
2022-09-17T04:10:35.907Z,97290.09
2022-09-17T04:15:38.006Z,97269.28
2022-09-17T04:20:40.079Z,97281.47
2022-09-17T04:25:42.590Z,97286.09
2022-09-17T04:30:44.489Z,97283.47
2022-09-17T04:35:46.787Z,97281.28
2022-09-17T04:40:48.830Z,97282.47
2022-09-17T04:45:50.895Z,97280.47
2022-09-17T04:50:52.783Z,97286.06
2022-09-17T04:55:54.722Z,97282.84
2022-09-17T05:00:56.674Z,97286.84
2022-09-17T05:05:58.723Z,97284.25
2022-09-17T05:11:00.597Z,97293.66
2022-09-17T05:16:02.722Z,97286.84
2022-09-17T05:21:04.641Z,97288.47
2022-09-17T05:26:06.551Z,97288.47
2022-09-17T05:31:09.022Z,97293.25
2022-09-17T05:36:10.909Z,97290.88
2022-09-17T05:41:12.769Z,97288.47
2022-09-17T05:46:14.669Z,97301.25
2022-09-17T05:51:16.724Z,97296.47
2022-09-17T05:56:19.602Z,97297.69
2022-09-17T06:01:21.691Z,97297.28
2022-09-17T06:06:23.574Z,97304.09
2022-09-17T06:11:25.557Z,97301.28
2022-09-17T06:16:27.741Z,97298.91
2022-09-17T06:21:30.113Z,97303.31
2022-09-17T06:26:32.151Z,97305.13
2022-09-17T06:31:34.241Z,97304.13
2022-09-17T06:36:36.127Z,97313.53
2022-09-17T06:41:39.117Z,97305.13
2022-09-17T06:46:41.145Z,97307.31
2022-09-17T06:51:43.044Z,97309.72
2022-09-17T06:56:47.955Z,97308.91
2022-09-17T07:01:49.801Z,97310.13
2022-09-17T07:06:51.643Z,97307.72
2022-09-17T07:11:53.459Z,97304.72
2022-09-17T07:16:55.542Z,97297.31
2022-09-17T07:21:57.556Z,97303.31
2022-09-17T07:26:59.664Z,97314.34
2022-09-17T07:32:01.744Z,97313.31
2022-09-17T07:37:03.575Z,97319.50
2022-09-17T07:42:05.562Z,97332.72
2022-09-17T07:47:07.837Z,97335.91
2022-09-17T07:52:09.831Z,97340.72
2022-09-17T07:57:11.627Z,97357.75
2022-09-17T08:02:14.419Z,97377.38
2022-09-17T08:07:16.317Z,97389.00
2022-09-17T08:12:19.606Z,97383.00
2022-09-17T08:17:21.408Z,97382.19
2022-09-17T08:22:23.431Z,97386.41
2022-09-17T08:27:25.259Z,97395.84
2022-09-17T08:32:30.196Z,97395.25
2022-09-17T08:37:31.982Z,97407.88
2022-09-17T08:42:47.202Z,97398.25
2022-09-17T08:47:49.886Z,97413.06
2022-09-17T08:53:21.340Z,97413.09
2022-09-17T08:58:49.178Z,97405.09
2022-09-17T09:04:25.040Z,97396.56
2022-09-17T09:09:35.457Z,97397.56
2022-09-17T09:14:59.915Z,97393.34
2022-09-17T09:20:02.107Z,97405.56
2022-09-17T09:25:13.223Z,97398.97
2022-09-17T09:30:16.967Z,97418.41
2022-09-17T09:35:31.292Z,97424.22
2022-09-17T09:41:01.075Z,97440.44
2022-09-17T09:46:08.911Z,97436.03
2022-09-17T09:51:16.632Z,97423.19
2022-09-17T09:56:32.446Z,97422.78
2022-09-17T10:01:41.273Z,97412.16
2022-09-17T10:06:43.644Z,97416.75
2022-09-17T10:12:04.917Z,97411.44
2022-09-17T10:17:21.022Z,97410.56
2022-09-17T10:22:44.201Z,97413.41
2022-09-17T10:27:48.451Z,97409.78
2022-09-17T10:33:29.735Z,97413.44
2022-09-17T10:38:36.614Z,97428.72
2022-09-17T10:43:42.542Z,97444.81
2022-09-17T10:48:54.194Z,97443.84
2022-09-17T10:54:08.003Z,97439.84
2022-09-17T10:59:39.549Z,97437.44
2022-09-17T11:05:00.843Z,97426.00
2022-09-17T11:10:05.403Z,97415.97
2022-09-17T11:15:24.336Z,97415.75
2022-09-17T11:20:53.625Z,97420.78
2022-09-17T11:26:04.286Z,97411.97
2022-09-17T11:31:33.453Z,97412.56
2022-09-17T11:36:54.003Z,97424.41
2022-09-17T11:41:57.954Z,97420.19
2022-09-17T11:47:02.476Z,97411.16
2022-09-17T11:52:07.013Z,97428.41
2022-09-17T11:57:25.702Z,97446.88
2022-09-17T12:02:30.602Z,97448.47
2022-09-17T12:08:12.483Z,97444.03
2022-09-17T12:13:22.470Z,97441.22
2022-09-17T12:18:32.873Z,97438.22
2022-09-17T12:23:43.337Z,97432.63
2022-09-17T12:28:59.728Z,97422.22
2022-09-17T12:34:32.492Z,97433.22
2022-09-17T12:39:44.237Z,97431.22
2022-09-17T12:45:05.448Z,97421.81
2022-09-17T12:50:41.086Z,97409.16
2022-09-17T12:55:48.481Z,97398.53
2022-09-17T13:01:03.211Z,97399.91
2022-09-17T13:06:13.967Z,97386.66
2022-09-17T13:11:56.265Z,97381.81
2022-09-17T13:16:58.036Z,97384.03
2022-09-17T13:22:10.423Z,97384.03
2022-09-17T13:27:26.234Z,97390.69
2022-09-17T13:32:34.000Z,97396.72
2022-09-17T13:37:41.543Z,97396.91
2022-09-17T13:42:47.857Z,97389.50
2022-09-17T13:47:57.756Z,97381.28
2022-09-17T13:53:13.162Z,97389.13
2022-09-17T13:58:21.044Z,97390.31
2022-09-17T14:03:28.676Z,97379.06
2022-09-17T14:08:58.519Z,97374.06
2022-09-17T14:14:06.529Z,97360.78
2022-09-17T14:19:50.981Z,97361.78
2022-09-17T14:24:55.087Z,97359.19
2022-09-17T14:29:59.777Z,97350.16
2022-09-17T14:35:19.778Z,97353.34
2022-09-17T14:40:24.114Z,97346.31
2022-09-17T14:45:42.838Z,97350.13
2022-09-17T14:50:44.694Z,97351.34
2022-09-17T14:55:49.888Z,97342.13
2022-09-17T15:00:53.634Z,97338.91
2022-09-17T15:05:55.554Z,97336.50
2022-09-17T15:11:11.025Z,97336.53
2022-09-17T15:16:27.154Z,97333.31
2022-09-17T15:21:31.947Z,97329.28
2022-09-17T15:26:40.625Z,97327.00
2022-09-17T15:31:42.611Z,97324.75
2022-09-17T15:37:17.822Z,97335.75
2022-09-17T15:42:19.540Z,97328.69
2022-09-17T15:47:52.195Z,97329.50
2022-09-17T15:53:11.298Z,97336.09
2022-09-17T15:58:45.603Z,97339.13
2022-09-17T16:04:01.765Z,97346.00
2022-09-17T16:09:04.296Z,97333.97
2022-09-17T16:14:06.104Z,97338.63
2022-09-17T16:19:10.590Z,97340.69
2022-09-17T16:24:12.413Z,97341.69
2022-09-17T16:29:17.275Z,97332.50
2022-09-17T16:34:19.047Z,97329.91
2022-09-17T16:39:20.978Z,97343.19
2022-09-17T16:44:22.791Z,97357.03
2022-09-17T16:49:24.623Z,97359.03
2022-09-17T16:54:26.391Z,97367.47
2022-09-17T16:59:28.219Z,97369.28
2022-09-17T17:04:29.982Z,97369.09
2022-09-17T17:09:31.863Z,97364.69
2022-09-17T17:14:33.679Z,97365.50
2022-09-17T17:19:36.849Z,97369.50
2022-09-17T17:24:38.743Z,97367.50
2022-09-17T17:29:41.403Z,97378.47
2022-09-17T17:34:43.236Z,97377.47
2022-09-17T17:39:45.106Z,97390.28
2022-09-17T17:44:47.744Z,97391.88
2022-09-17T17:49:49.543Z,97396.28
2022-09-17T17:54:51.424Z,97402.28
2022-09-17T17:59:53.298Z,97403.88
2022-09-17T18:04:55.083Z,97414.88
2022-09-17T18:09:57.163Z,97421.66
2022-09-17T18:14:59.034Z,97421.66
2022-09-17T18:20:00.902Z,97420.03
2022-09-17T18:25:02.638Z,97417.41
2022-09-17T18:30:08.302Z,97418.19
2022-09-17T18:35:10.089Z,97419.94
2022-09-17T18:40:12.203Z,97422.31
2022-09-17T18:45:14.076Z,97425.31
2022-09-17T18:50:16.557Z,97422.91
2022-09-17T18:55:18.417Z,97423.28
2022-09-17T19:00:21.354Z,97432.28
2022-09-17T19:05:24.218Z,97431.66
2022-09-17T19:10:27.276Z,97431.06
2022-09-17T19:15:30.595Z,97430.88
2022-09-17T19:20:37.187Z,97427.28
2022-09-17T19:25:39.328Z,97430.47
2022-09-17T19:30:41.232Z,97442.69
2022-09-17T19:35:43.017Z,97435.06
2022-09-17T19:40:55.311Z,97440.47
2022-09-17T19:46:05.630Z,97438.88
2022-09-17T19:51:07.551Z,97433.06
2022-09-17T19:56:18.507Z,97419.63
2022-09-17T20:01:20.904Z,97418.97
2022-09-17T20:06:24.100Z,97417.38
2022-09-17T20:11:26.866Z,97437.94
2022-09-17T20:16:29.897Z,97433.50
2022-09-17T20:21:32.788Z,97428.88
2022-09-17T20:26:35.543Z,97427.84
2022-09-17T20:31:37.595Z,97422.38
2022-09-17T20:36:39.540Z,97431.94
2022-09-17T20:41:42.362Z,97421.31
2022-09-17T20:46:44.158Z,97418.09
2022-09-17T20:51:45.966Z,97418.47
2022-09-17T20:56:47.814Z,97406.66
2022-09-17T21:01:50.130Z,97391.25
2022-09-17T21:06:53.789Z,97400.41
2022-09-17T21:11:55.584Z,97399.38
2022-09-17T21:16:57.517Z,97397.16
2022-09-17T21:21:59.406Z,97392.16
2022-09-17T21:27:01.151Z,97397.53
2022-09-17T21:32:02.897Z,97389.94
2022-09-17T21:37:05.663Z,97394.50
2022-09-17T21:42:08.021Z,97397.13
2022-09-17T21:47:12.425Z,97390.13
2022-09-17T21:52:14.491Z,97398.72
2022-09-17T21:57:16.312Z,97391.72
2022-09-17T22:02:18.180Z,97397.13
2022-09-17T22:07:20.711Z,97393.09
2022-09-17T22:12:24.546Z,97387.84
2022-09-17T22:17:26.401Z,97384.03
2022-09-17T22:22:28.107Z,97379.56
2022-09-17T22:27:29.886Z,97374.56
2022-09-17T22:32:31.780Z,97371.72
2022-09-17T22:37:33.520Z,97369.31
2022-09-17T22:42:35.333Z,97359.13
2022-09-17T22:47:42.965Z,97353.38
2022-09-17T22:52:47.731Z,97362.94
2022-09-17T22:57:49.495Z,97366.91
2022-09-17T23:02:52.360Z,97372.66
2022-09-17T23:07:54.341Z,97377.97
2022-09-17T23:12:56.153Z,97371.94
2022-09-17T23:17:58.051Z,97369.09
2022-09-17T23:23:03.051Z,97367.66
2022-09-17T23:28:05.037Z,97359.25
2022-09-17T23:33:06.829Z,97357.03
2022-09-17T23:38:08.733Z,97346.22
2022-09-17T23:43:10.612Z,97351.41
2022-09-17T23:48:12.423Z,97347.84
2022-09-17T23:53:14.420Z,97345.06
2022-09-17T23:58:16.628Z,97346.66
